Strona główna
METAR-TAF:

METAR-TAF

Lotnisko :

Port lotniczy Lemnos

Lemnos, Grecja

Szerokość geograficzna: 39-55N, Długość geograficzna: 025-14E, wysokość: 5 m

Aktualna obserwacja pogody

Raport powstał 24 minut temu, godzina 19:50 UTC
Wiatr 14 kt od północny wschód w porywach dochodzący do 24 kt
Temperatura 8°C
Wilgotność 61%
Ciśnienie 1027 hPa
Widzialność 10 km lub więcej
Mało chmury na wysokości 1000 ft
Zachmurzenie całkowite na wysokości 3000 ft

METAR: LGLM 191950Z 05014G24KT 9999 FEW010 OVC030 08/01 Q1027

czas: 22:14 (20:14 UTC)

Prognoza

Raport powstał 3 godziny i 14 minut temu, godzina 17:00 UTC
Prognoza ważna od 19 godzina 18 UTC do 20 godzina 03 UTC
Wiatr 20 kt od północny wschód
Widzialność 10 km lub więcej
Mało chmury na wysokości 800 ft
Przerywane chmury na wysokości 2500 ft
Przejściowo
od 20 godzina 00 UTC do 20 godzina 03 UTC
Wiatr 20 kt od północny wschód w porywach dochodzący do 30 kt

TAF: LGLM 191700Z 1918/2003 04020KT 9999 FEW008 BKN025 TEMPO 2000/2003 04020G30KT

Obserwacja i prognoza pogody dla ponad 4000 lotnisk (raport METAR i TAF).

Dostępne stacje oznaczono żółtymi i czerwonymi punktami na mapie.

Najedź kursorem aby zobaczyć nazwę stacji.

Kliknij aby zobaczyć obserwacje i prognozy pogody.

Aby zmienić mapę: kliknij na zielony przycisk z czarnym krzyżykiem, aby powiększyć; na zielony przycisk z myślnikiem, aby pomniejszyć; na zielone strzałki, aby przejść do map sąsiednich.


METAR-TAF: